Etusivu
METAR-TAF:

METAR-TAF

Lentoasemat :

Mendoza, Argentiina

Leveyspiiri: 32-50S, Pituuspiiri: 068-47W, korkeus merenpinnasta: 705 m

Tämänhetkinen sää

Tämä raportti tehtiin 32 minuuttia sitten, kello 04.00 UTC
tyyntä
Lämpötila 3°C
Kosteus 32%
Ilmanpaine 1017 hPa
Näkyvyys 10 km tai enemmän
ei pilviä alle 1500 m:ssä eikä cumulonimbus-pilviä

METAR: SAME 120400Z 00000KT CAVOK 03/M12 Q1017

Aika: 01:32 (04:32 UTC)

Sääennuste

Tämä raportti tehtiin 5 tuntia ja 32 minuuttia sitten, kello 23.00 UTC
Ennuste voimassa 12. päivästä klo 00 UTC - 12. päivään klo 24 UTC
Tuuli 5 kn koillisesta
Näkyvyys 10 km tai enemmän
ei pilviä alle 1500 m:ssä eikä cumulonimbus-pilviä
Tulossa
12. päivästä klo 02 UTC - 12. päivään klo 06 UTC
Tuuli 5 kn etelästä/lounaasta
Tulossa
12. päivästä klo 14 UTC - 12. päivään klo 16 UTC
Tuuli 5 kn kaakosta

TAF: SAME 112300Z 1200/1224 05005KT CAVOK TX15/1220Z TNM02/1211Z BECMG 1202/1206 20005KT BECMG 1214/1216 14005KT

Säähavainnot ja -ennusteet yli 4000 lentoasemalta (METAR- ja TAF-raportit).

Käytössä olevat sääasemat on merkitty karttaan keltaisilla ja punaisilla pisteillä.

Aseta hiiri pisteen päälle nähdäksesi sääaseman nimen.

Klikkaa sitten nähdäksesi säähavainnot ja -ennusteet.

Kartan vaihtaminen: klikkaa mustalla rastilla varustettuja vihreitä pisteitä, niin voit zoomata sisään; viivalla varustettua vihreää pistettä, niin voit zoomata ulos tai vihreitä nuolia, niin pääset viereisille kartoille.


METAR-TAF: